Time;durP1;ratioP1;P1;durP2;ratioP2;P2;SDS_P1;SDS_P2;PMS_P1;PMS_P2;Temp;Humidity;BMP_temperature;BMP_pressure;BME280_temperature;BME280_humidity;BME280_pressure;Samples;Min_cycle;Max_cycle;Signal;HPM_P1;HPM_P2
2021/03/13 00:01:16;;;;;;;1.50;1.20;;;7.30;98.20;;;;;;5045196;28;20564;-80
2021/03/13 00:03:43;;;;;;;1.60;1.30;;;7.30;98.20;;;;;;5058050;28;20842;-79
2021/03/13 00:06:09;;;;;;;1.53;1.20;;;7.30;98.20;;;;;;5043375;28;20479;-79
2021/03/13 00:08:37;;;;;;;1.53;1.20;;;7.30;98.20;;;;;;5065063;28;20482;-78
2021/03/13 00:11:05;;;;;;;1.50;1.20;;;7.30;98.20;;;;;;5036626;28;20458;-78
2021/03/13 00:13:32;;;;;;;1.53;1.20;;;7.30;98.20;;;;;;5038385;28;20565;-79
2021/03/13 00:15:58;;;;;;;1.60;1.27;;;7.40;98.20;;;;;;5043483;28;20801;-79
2021/03/13 00:18:25;;;;;;;1.57;1.20;;;7.40;98.20;;;;;;5048153;28;21191;-79
2021/03/13 00:20:51;;;;;;;1.57;1.30;;;7.40;98.20;;;;;;5027414;28;21001;-79
2021/03/13 00:23:18;;;;;;;1.53;1.20;;;7.50;98.20;;;;;;5054259;28;20497;-79
2021/03/13 00:25:46;;;;;;;1.50;1.20;;;7.50;98.20;;;;;;5047833;28;20558;-80
2021/03/13 00:28:12;;;;;;;1.53;1.20;;;7.40;98.20;;;;;;5044869;28;20485;-80
2021/03/13 00:30:43;;;;;;;1.57;1.30;;;7.40;98.20;;;;;;5059850;28;20462;-79
2021/03/13 00:33:12;;;;;;;1.57;1.20;;;7.30;98.20;;;;;;5048956;28;20482;-79
2021/03/13 00:35:40;;;;;;;1.60;1.30;;;7.30;98.20;;;;;;5047304;28;20486;-78
2021/03/13 00:38:07;;;;;;;1.60;1.30;;;7.20;98.20;;;;;;5048757;28;20496;-76
2021/03/13 00:40:36;;;;;;;1.50;1.20;;;7.20;98.20;;;;;;5054169;28;20476;-80
2021/03/13 00:43:05;;;;;;;1.53;1.20;;;7.10;98.20;;;;;;5045423;28;20527;-78
2021/03/13 00:45:31;;;;;;;2.37;2.17;;;7.10;98.20;;;;;;5049532;28;20466;-78
2021/03/13 00:47:59;;;;;;;1.53;1.20;;;7.10;98.20;;;;;;5051340;28;20485;-78
2021/03/13 00:50:27;;;;;;;1.60;1.20;;;7.10;98.20;;;;;;5043955;28;20466;-77
2021/03/13 00:52:53;;;;;;;1.50;1.20;;;7.10;98.20;;;;;;5042581;28;20478;-77
2021/03/13 00:55:20;;;;;;;1.60;1.30;;;7.10;98.20;;;;;;5049338;28;20480;-78
2021/03/13 00:57:46;;;;;;;1.57;1.23;;;7.10;98.20;;;;;;5042162;28;20478;-78
2021/03/13 01:00:16;;;;;;;1.53;1.20;;;7.10;98.20;;;;;;5046248;28;20720;-78
2021/03/13 01:02:42;;;;;;;1.60;1.33;;;7.10;98.20;;;;;;5034973;28;20481;-79
2021/03/13 01:05:10;;;;;;;1.60;1.30;;;7.10;98.20;;;;;;5050365;28;20462;-78
2021/03/13 01:07:37;;;;;;;1.57;1.20;;;7.10;98.20;;;;;;5048717;28;20519;-79
2021/03/13 01:10:10;;;;;;;1.53;1.20;;;7.10;98.20;;;;;;5054720;28;20475;-79
2021/03/13 01:12:37;;;;;;;1.57;1.20;;;7.00;98.20;;;;;;5050004;28;21047;-80
2021/03/13 01:15:06;;;;;;;1.60;1.43;;;7.00;98.20;;;;;;5057988;28;20480;-77
2021/03/13 01:17:33;;;;;;;1.60;1.20;;;6.90;98.20;;;;;;5058395;28;20505;-77
2021/03/13 01:19:59;;;;;;;1.57;1.20;;;6.90;98.20;;;;;;5049729;28;20498;-78
2021/03/13 01:22:25;;;;;;;1.50;1.20;;;6.90;98.20;;;;;;5032213;28;20493;-77
2021/03/13 01:24:51;;;;;;;1.53;1.20;;;6.90;98.20;;;;;;5045630;28;20466;-78
2021/03/13 01:27:18;;;;;;;1.60;1.30;;;6.90;98.20;;;;;;5045131;28;20485;-79
2021/03/13 01:29:44;;;;;;;1.60;1.30;;;6.90;98.20;;;;;;5048402;28;20471;-78
2021/03/13 01:32:10;;;;;;;1.50;1.20;;;7.00;98.20;;;;;;5048186;28;20474;-79
2021/03/13 01:34:37;;;;;;;1.60;1.30;;;7.00;98.20;;;;;;5057552;28;20466;-79
2021/03/13 01:37:05;;;;;;;1.60;1.30;;;7.00;98.20;;;;;;5029855;28;20564;-79
2021/03/13 01:39:31;;;;;;;1.53;1.20;;;7.00;98.20;;;;;;5044436;28;20454;-79
2021/03/13 01:41:57;;;;;;;1.57;1.20;;;7.00;98.20;;;;;;5035229;28;20483;-79
2021/03/13 01:44:24;;;;;;;1.50;1.20;;;7.00;98.20;;;;;;5049776;28;20462;-78
2021/03/13 01:46:51;;;;;;;1.60;1.30;;;7.00;98.20;;;;;;5040348;28;20532;-78
2021/03/13 01:49:19;;;;;;;1.60;1.30;;;7.00;98.20;;;;;;5062616;28;20482;-78
2021/03/13 01:51:46;;;;;;;1.57;1.20;;;7.00;98.20;;;;;;5037721;28;20474;-79
2021/03/13 01:54:12;;;;;;;1.60;1.30;;;7.00;98.20;;;;;;5057575;28;20458;-79
2021/03/13 01:56:40;;;;;;;1.60;1.20;;;7.00;98.20;;;;;;5028970;28;20491;-79
2021/03/13 01:59:06;;;;;;;1.50;1.20;;;7.00;98.20;;;;;;5046775;28;20479;-80
2021/03/13 02:01:33;;;;;;;1.53;1.20;;;7.00;98.20;;;;;;5036611;28;20493;-80
2021/03/13 02:03:59;;;;;;;1.60;1.30;;;7.00;98.20;;;;;;5058266;28;20455;-80
2021/03/13 02:06:26;;;;;;;1.57;1.20;;;7.00;98.20;;;;;;5040771;28;20487;-79
2021/03/13 02:09:02;;;;;;;1.60;1.20;;;7.00;98.20;;;;;;5048417;28;20466;-80
2021/03/13 02:11:37;;;;;;;1.60;1.40;;;6.90;98.20;;;;;;5046009;28;20842;-80
2021/03/13 02:14:16;;;;;;;1.50;1.30;;;6.90;98.20;;;;;;5045104;28;20860;-80
2021/03/13 02:16:48;;;;;;;1.60;1.23;;;6.90;98.20;;;;;;5030064;28;20486;-78
2021/03/13 02:19:43;;;;;;;1.60;1.30;;;6.90;98.20;;;;;;5026066;28;20494;-79
2021/03/13 02:22:12;;;;;;;1.57;1.20;;;6.90;98.20;;;;;;5041502;28;20845;-78
2021/03/13 02:24:59;;;;;;;1.50;1.20;;;6.80;98.20;;;;;;5049229;28;20454;-79
2021/03/13 02:27:29;;;;;;;1.57;1.20;;;6.80;98.20;;;;;;5045465;28;20482;-79
2021/03/13 02:29:59;;;;;;;1.60;1.33;;;6.80;98.20;;;;;;5045766;28;20496;-79
2021/03/13 02:32:37;;;;;;;1.53;1.20;;;6.80;98.20;;;;;;5035438;28;21099;-79
2021/03/13 02:35:07;;;;;;;1.53;1.30;;;6.80;98.20;;;;;;5045789;28;20465;-79
2021/03/13 02:37:37;;;;;;;1.60;1.30;;;6.80;98.20;;;;;;5042801;28;20546;-78
2021/03/13 02:40:06;;;;;;;1.57;1.20;;;6.80;98.20;;;;;;5043566;28;20463;-79
2021/03/13 02:42:40;;;;;;;1.57;1.30;;;6.80;98.20;;;;;;5027912;28;20483;-79
2021/03/13 02:45:09;;;;;;;1.60;1.23;;;6.80;98.20;;;;;;5051006;28;20522;-78
2021/03/13 02:47:39;;;;;;;1.60;1.30;;;6.80;98.20;;;;;;5025821;28;20493;-79
2021/03/13 02:50:07;;;;;;;1.50;1.20;;;6.70;98.20;;;;;;5049207;28;20462;-80
2021/03/13 02:52:34;;;;;;;1.53;1.20;;;6.70;98.20;;;;;;5040353;28;20605;-79
2021/03/13 02:55:04;;;;;;;1.60;1.30;;;6.70;98.20;;;;;;5042865;28;20468;-78
2021/03/13 02:57:31;;;;;;;1.60;1.40;;;6.70;98.20;;;;;;5041468;28;20535;-79
2021/03/13 02:59:57;;;;;;;1.53;1.20;;;6.70;98.20;;;;;;5044849;28;20472;-78
2021/03/13 03:02:26;;;;;;;1.53;1.20;;;6.70;98.20;;;;;;5041029;28;20478;-79
2021/03/13 03:04:54;;;;;;;1.60;1.30;;;6.70;98.20;;;;;;5046418;28;20466;-78
2021/03/13 03:07:25;;;;;;;1.57;1.23;;;6.70;98.20;;;;;;5047473;28;20477;-77
2021/03/13 03:09:52;;;;;;;1.57;1.30;;;6.70;98.20;;;;;;5038235;28;20458;-79
2021/03/13 03:12:19;;;;;;;1.50;1.20;;;6.70;98.20;;;;;;5040168;28;20489;-79
2021/03/13 03:14:47;;;;;;;1.60;1.20;;;6.70;98.20;;;;;;5041757;28;20666;-79
2021/03/13 03:17:14;;;;;;;1.57;1.20;;;6.70;98.20;;;;;;5045903;28;20490;-79
2021/03/13 03:19:42;;;;;;;1.60;1.30;;;6.70;98.20;;;;;;5055278;28;21107;-79
2021/03/13 03:22:08;;;;;;;1.60;1.40;;;6.70;98.20;;;;;;5046974;28;20485;-78
2021/03/13 03:24:35;;;;;;;1.57;1.30;;;6.70;98.20;;;;;;5053235;28;20915;-80
2021/03/13 03:27:02;;;;;;;1.60;1.30;;;6.70;98.20;;;;;;5036629;28;20477;-79
2021/03/13 03:29:28;;;;;;;1.50;1.20;;;6.70;98.20;;;;;;5044280;28;20474;-77
2021/03/13 03:31:55;;;;;;;1.60;1.30;;;6.70;98.20;;;;;;5028437;28;20490;-77
2021/03/13 03:34:21;;;;;;;1.53;1.30;;;6.60;98.20;;;;;;5044244;28;20466;-79
2021/03/13 03:36:49;;;;;;;1.60;1.40;;;6.60;98.20;;;;;;5040900;28;20474;-79
2021/03/13 03:39:16;;;;;;;1.60;1.40;;;6.60;98.20;;;;;;5045091;28;20564;-77
2021/03/13 03:41:47;;;;;;;1.50;1.20;;;6.60;98.20;;;;;;5037462;28;20482;-78
2021/03/13 03:44:16;;;;;;;1.50;1.20;;;6.60;98.20;;;;;;5040487;28;20473;-76
2021/03/13 03:46:43;;;;;;;1.60;1.33;;;6.60;98.20;;;;;;5044901;28;20520;-77
2021/03/13 03:49:12;;;;;;;1.57;1.30;;;6.60;98.20;;;;;;5055520;28;20504;-77
2021/03/13 03:51:40;;;;;;;1.53;1.20;;;6.60;98.20;;;;;;5043480;28;20478;-79
2021/03/13 03:54:12;;;;;;;1.57;1.20;;;6.60;98.20;;;;;;5047011;28;20830;-77
2021/03/13 03:56:40;;;;;;;1.60;1.30;;;6.60;98.20;;;;;;5040470;28;20486;-77
2021/03/13 03:59:09;;;;;;;1.50;1.30;;;6.60;98.20;;;;;;5051749;28;20490;-77
2021/03/13 04:01:36;;;;;;;1.57;1.30;;;6.70;98.20;;;;;;5039892;28;20481;-77
2021/03/13 04:04:06;;;;;;;1.53;1.20;;;6.70;98.20;;;;;;5056313;28;20470;-77
2021/03/13 04:06:33;;;;;;;1.60;1.40;;;6.70;98.20;;;;;;5038241;28;20478;-78
2021/03/13 04:09:02;;;;;;;1.53;1.20;;;6.70;98.20;;;;;;5046244;28;20489;-77
2021/03/13 04:11:29;;;;;;;1.60;1.30;;;6.70;98.20;;;;;;5040357;28;20540;-78
2021/03/13 04:13:58;;;;;;;1.60;1.30;;;6.70;98.20;;;;;;5056335;28;20562;-79
2021/03/13 04:16:27;;;;;;;1.60;1.20;;;6.80;98.20;;;;;;5028370;28;20487;-79
2021/03/13 04:18:53;;;;;;;1.57;1.30;;;6.80;98.20;;;;;;5034505;28;20487;-79
2021/03/13 04:21:20;;;;;;;1.53;1.20;;;6.80;98.20;;;;;;5030106;28;20471;-79
2021/03/13 04:23:48;;;;;;;1.60;1.23;;;6.80;98.20;;;;;;5032539;28;20475;-78
2021/03/13 04:26:16;;;;;;;1.60;1.30;;;6.80;98.20;;;;;;5037492;28;21021;-78
2021/03/13 04:28:43;;;;;;;1.60;1.30;;;6.80;98.20;;;;;;5049011;28;20486;-78
2021/03/13 04:31:12;;;;;;;1.60;1.30;;;6.80;98.20;;;;;;5036776;28;20477;-79
2021/03/13 04:33:40;;;;;;;1.57;1.30;;;6.80;98.20;;;;;;5043842;28;20513;-78
2021/03/13 04:36:07;;;;;;;1.57;1.30;;;6.80;98.20;;;;;;5030115;28;20488;-78
2021/03/13 04:38:34;;;;;;;1.53;1.20;;;6.90;98.20;;;;;;5043811;28;20491;-78
2021/03/13 04:41:01;;;;;;;1.60;1.30;;;6.90;98.20;;;;;;5031849;28;20544;-78
2021/03/13 04:43:27;;;;;;;1.60;1.20;;;6.90;98.20;;;;;;5049552;28;20460;-78
2021/03/13 04:45:58;;;;;;;1.60;1.30;;;6.90;98.20;;;;;;5042513;28;20466;-77
2021/03/13 04:48:26;;;;;;;1.60;1.30;;;6.90;98.20;;;;;;5048956;28;20898;-77
2021/03/13 04:50:55;;;;;;;1.60;1.20;;;6.90;98.20;;;;;;5034208;28;20475;-77
2021/03/13 04:53:22;;;;;;;1.53;1.23;;;6.90;98.20;;;;;;5055143;28;20995;-78
2021/03/13 04:55:48;;;;;;;1.53;1.20;;;6.90;98.20;;;;;;5042831;28;20926;-78
2021/03/13 04:58:14;;;;;;;1.60;1.30;;;6.90;98.20;;;;;;5048411;28;20498;-80
2021/03/13 05:00:41;;;;;;;1.60;1.40;;;6.90;98.20;;;;;;5044317;28;20882;-77
2021/03/13 05:03:08;;;;;;;1.50;1.20;;;6.90;98.20;;;;;;5036389;28;20540;-77
2021/03/13 05:05:34;;;;;;;1.60;1.30;;;6.90;98.20;;;;;;5046434;28;20487;-78
2021/03/13 05:08:00;;;;;;;1.60;1.30;;;6.90;98.20;;;;;;5047297;28;20591;-78
2021/03/13 05:10:28;;;;;;;1.50;1.20;;;7.00;98.20;;;;;;5051957;28;20524;-77
2021/03/13 05:12:54;;;;;;;1.53;1.20;;;7.00;98.20;;;;;;5038553;28;20482;-78
2021/03/13 05:15:22;;;;;;;1.60;1.50;;;7.00;98.20;;;;;;5040019;28;20462;-78
2021/03/13 05:17:49;;;;;;;1.60;1.30;;;7.00;98.20;;;;;;5050212;28;20925;-77
2021/03/13 05:20:16;;;;;;;1.60;1.30;;;7.00;98.20;;;;;;5054052;28;20477;-80
2021/03/13 05:22:46;;;;;;;1.57;1.20;;;7.00;98.20;;;;;;5040074;28;20476;-79
2021/03/13 05:25:12;;;;;;;1.60;1.30;;;7.10;98.20;;;;;;5045669;28;20454;-79
2021/03/13 05:27:39;;;;;;;1.60;1.40;;;7.10;98.20;;;;;;5044249;28;20477;-79
2021/03/13 05:30:07;;;;;;;1.60;1.30;;;7.10;98.20;;;;;;5045263;28;20466;-78
2021/03/13 05:32:33;;;;;;;1.60;1.30;;;7.10;98.20;;;;;;5045085;28;20873;-77
2021/03/13 05:35:00;;;;;;;1.60;1.20;;;7.10;98.20;;;;;;5051820;28;20455;-78
2021/03/13 05:37:29;;;;;;;1.60;1.30;;;7.20;98.20;;;;;;5033918;28;20487;-77
2021/03/13 05:39:55;;;;;;;1.57;1.20;;;7.20;98.20;;;;;;5042952;28;20999;-79
2021/03/13 05:42:22;;;;;;;1.57;1.30;;;7.20;98.20;;;;;;5045533;28;20485;-78
2021/03/13 05:44:49;;;;;;;1.57;1.20;;;7.20;98.20;;;;;;5045118;28;20459;-79
2021/03/13 05:47:19;;;;;;;1.50;1.20;;;7.30;98.20;;;;;;5037453;28;20512;-77
2021/03/13 05:49:48;;;;;;;1.60;1.30;;;7.30;98.20;;;;;;5045614;28;20836;-78
2021/03/13 05:52:19;;;;;;;1.57;1.23;;;7.30;98.20;;;;;;5036536;28;20720;-77
2021/03/13 05:54:49;;;;;;;1.60;1.30;;;7.40;98.20;;;;;;5053955;28;20468;-76
2021/03/13 05:57:15;;;;;;;1.53;1.20;;;7.40;98.20;;;;;;5038508;28;20482;-77
2021/03/13 05:59:42;;;;;;;1.60;1.30;;;7.50;98.20;;;;;;5049415;28;20498;-78
2021/03/13 06:04:38;;;;;;;1.57;1.20;;;7.50;98.20;;;;;;5020807;28;20462;-76
2021/03/13 06:07:05;;;;;;;1.50;1.10;;;7.60;98.20;;;;;;5017778;28;20510;-76
2021/03/13 06:09:31;;;;;;;1.60;1.33;;;7.60;98.20;;;;;;5027142;28;20463;-76
2021/03/13 06:11:58;;;;;;;1.53;1.10;;;7.60;98.20;;;;;;5017680;28;20475;-77
2021/03/13 06:14:25;;;;;;;1.60;1.40;;;7.70;98.20;;;;;;5029240;28;20479;-76
2021/03/13 06:16:52;;;;;;;1.60;1.30;;;7.70;98.20;;;;;;5016780;28;20987;-76
2021/03/13 06:19:18;;;;;;;1.53;1.10;;;7.70;98.20;;;;;;5027473;28;20502;-76
2021/03/13 06:21:44;;;;;;;1.57;1.13;;;7.80;98.20;;;;;;5013833;28;20537;-76
2021/03/13 06:24:16;;;;;;;1.60;1.40;;;7.80;98.20;;;;;;5027633;28;20834;-77
2021/03/13 06:26:53;;;;;;;1.53;1.20;;;7.80;98.20;;;;;;5005504;28;20505;-77
2021/03/13 06:29:21;;;;;;;1.60;1.30;;;7.80;98.20;;;;;;5011579;28;20467;-75
2021/03/13 06:32:05;;;;;;;1.60;1.20;;;7.90;98.20;;;;;;5016135;28;20487;-75
2021/03/13 06:34:32;;;;;;;1.53;1.20;;;7.90;98.20;;;;;;5026927;28;20463;-75
2021/03/13 06:37:21;;;;;;;1.60;1.20;;;7.90;98.20;;;;;;5013190;28;20686;-76
2021/03/13 06:39:48;;;;;;;1.53;1.10;;;8.00;98.20;;;;;;5026224;28;20487;-76
2021/03/13 06:42:22;;;;;;;1.60;1.30;;;8.00;98.20;;;;;;5016942;28;20479;-75
2021/03/13 06:44:56;;;;;;;1.60;1.30;;;8.00;98.20;;;;;;5017904;28;20482;-77
2021/03/13 06:47:29;;;;;;;1.60;1.20;;;8.00;98.20;;;;;;5023226;28;20490;-75
2021/03/13 06:50:11;;;;;;;1.60;1.37;;;8.00;98.20;;;;;;5016860;28;20573;-76
2021/03/13 06:52:38;;;;;;;1.60;1.20;;;8.10;98.20;;;;;;5018200;28;20478;-75
2021/03/13 06:55:05;;;;;;;1.57;1.20;;;8.10;98.20;;;;;;5025033;28;20762;-74
2021/03/13 06:57:31;;;;;;;1.60;1.30;;;8.20;98.20;;;;;;5018648;28;20494;-75
2021/03/13 07:00:01;;;;;;;1.57;1.23;;;8.20;98.20;;;;;;5024814;28;20467;-76
2021/03/13 07:02:28;;;;;;;1.57;1.20;;;8.20;98.20;;;;;;5013524;28;20494;-74
2021/03/13 07:05:07;;;;;;;1.50;1.20;;;8.30;98.20;;;;;;5025097;28;20490;-76
2021/03/13 07:07:34;;;;;;;1.60;1.30;;;8.30;98.20;;;;;;5013866;28;20482;-76
2021/03/13 07:10:02;;;;;;;1.60;1.20;;;8.30;98.20;;;;;;5021285;28;20479;-74
2021/03/13 07:12:32;;;;;;;1.53;1.20;;;8.30;98.20;;;;;;5008510;28;21002;-75
2021/03/13 07:15:13;;;;;;;1.57;1.13;;;8.40;98.20;;;;;;5023762;28;20857;-74
2021/03/13 07:17:44;;;;;;;1.57;1.17;;;8.40;98.20;;;;;;5020990;28;20596;-74
2021/03/13 07:20:12;;;;;;;1.53;1.20;;;8.40;98.20;;;;;;5021860;28;20499;-75
2021/03/13 07:22:39;;;;;;;1.60;1.20;;;8.50;98.20;;;;;;5005822;28;20522;-75
2021/03/13 07:25:09;;;;;;;1.60;1.30;;;8.50;98.20;;;;;;5020108;28;20474;-75
2021/03/13 07:27:40;;;;;;;1.57;1.20;;;8.50;98.20;;;;;;5016572;28;20583;-76
2021/03/13 07:30:14;;;;;;;1.60;1.20;;;8.50;98.20;;;;;;5016060;28;20464;-76
2021/03/13 07:32:43;;;;;;;1.60;1.20;;;8.50;98.20;;;;;;5019695;28;20525;-76
2021/03/13 07:35:11;;;;;;;1.60;1.30;;;8.50;98.20;;;;;;5020659;28;20494;-74
2021/03/13 07:37:41;;;;;;;1.60;1.20;;;8.20;98.20;;;;;;5016152;28;20558;-75
2021/03/13 07:40:14;;;;;;;1.60;1.20;;;7.60;98.20;;;;;;5019631;28;20883;-74
2021/03/13 07:42:43;;;;;;;1.50;1.20;;;7.10;98.20;;;;;;5016619;28;20494;-75
2021/03/13 07:45:13;;;;;;;1.53;1.20;;;6.70;98.20;;;;;;5020813;28;20499;-76
2021/03/13 07:47:40;;;;;;;1.60;1.20;;;6.40;98.20;;;;;;5013357;28;20546;-76
2021/03/13 07:50:09;;;;;;;1.60;1.23;;;6.30;98.20;;;;;;5014456;28;20460;-77
2021/03/13 07:52:37;;;;;;;1.60;1.40;;;6.20;98.20;;;;;;5011514;28;20550;-77
2021/03/13 07:55:07;;;;;;;1.60;1.27;;;6.20;98.20;;;;;;5025984;28;20971;-76
2021/03/13 07:57:36;;;;;;;1.60;1.30;;;6.20;98.20;;;;;;5015287;28;20566;-75
2021/03/13 08:00:03;;;;;;;1.60;1.20;;;6.20;98.20;;;;;;5020629;28;20536;-76
2021/03/13 08:02:42;;;;;;;1.60;1.30;;;6.20;98.20;;;;;;5012818;28;20487;-76
2021/03/13 08:05:15;;;;;;;1.60;1.30;;;6.20;98.20;;;;;;5014079;28;20569;-75
2021/03/13 08:08:00;;;;;;;1.60;1.30;;;6.30;98.20;;;;;;5006124;28;20597;-75
2021/03/13 08:10:53;;;;;;;1.53;1.20;;;6.30;98.20;;;;;;5016663;28;20554;-73
2021/03/13 08:13:49;;;;;;;1.60;1.20;;;6.30;98.20;;;;;;4992175;28;20850;-74
2021/03/13 08:16:19;;;;;;;1.50;1.10;;;6.40;98.20;;;;;;5006387;28;20471;-75
2021/03/13 08:18:48;;;;;;;1.57;1.20;;;6.40;98.20;;;;;;5012149;28;20594;-73
2021/03/13 08:21:43;;;;;;;1.50;1.20;;;6.50;98.20;;;;;;5003660;28;20488;-76
2021/03/13 08:24:10;;;;;;;1.60;1.30;;;6.50;98.20;;;;;;5012330;28;20487;-75
2021/03/13 08:27:03;;;;;;;1.53;1.20;;;6.60;98.20;;;;;;5010613;28;20574;-74
2021/03/13 08:29:46;;;;;;;1.53;1.20;;;6.70;98.20;;;;;;5014690;28;20730;-75
2021/03/13 08:32:13;;;;;;;1.57;1.30;;;6.70;98.20;;;;;;5004127;28;21022;-75
2021/03/13 08:34:42;;;;;;;1.60;1.20;;;6.80;98.20;;;;;;5013443;28;20467;-75
2021/03/13 08:37:20;;;;;;;1.60;1.20;;;6.90;98.20;;;;;;4996551;28;20889;-75
2021/03/13 08:39:47;;;;;;;1.53;1.20;;;6.90;98.20;;;;;;5017937;28;20515;-75
2021/03/13 08:42:31;;;;;;;1.57;1.20;;;7.00;98.20;;;;;;5008483;28;20973;-75
2021/03/13 08:45:15;;;;;;;1.57;1.20;;;7.10;98.20;;;;;;5009146;28;20587;-76
2021/03/13 08:47:48;;;;;;;1.57;1.20;;;7.10;98.20;;;;;;5011741;28;22582;-76
2021/03/13 08:50:50;;;;;;;1.57;1.20;;;7.20;98.20;;;;;;5020805;28;20518;-75
2021/03/13 08:53:30;;;;;;;1.57;1.10;;;7.30;98.20;;;;;;4984740;28;21022;-75
2021/03/13 08:55:57;;;;;;;1.53;1.20;;;7.30;98.20;;;;;;5007984;28;20479;-76
2021/03/13 08:58:39;;;;;;;1.60;1.37;;;7.30;98.20;;;;;;5018857;28;20491;-76
2021/03/13 09:01:16;;;;;;;1.60;1.30;;;7.40;98.20;;;;;;5001607;28;20490;-75
2021/03/13 09:03:52;;;;;;;1.60;1.40;;;7.50;98.20;;;;;;5011127;28;20586;-76
2021/03/13 09:06:21;;;;;;;1.60;1.20;;;7.50;98.20;;;;;;5002483;28;20562;-75
2021/03/13 09:08:47;;;;;;;1.60;1.30;;;7.50;98.20;;;;;;5015938;28;20912;-75
2021/03/13 09:11:25;;;;;;;1.57;1.20;;;7.60;98.20;;;;;;5013330;28;20556;-75
2021/03/13 09:13:58;;;;;;;1.60;1.13;;;7.60;98.20;;;;;;5016451;28;20613;-75
2021/03/13 09:16:25;;;;;;;1.60;1.30;;;7.70;98.20;;;;;;5009732;28;20483;-76
2021/03/13 09:18:55;;;;;;;1.53;1.20;;;7.80;98.20;;;;;;5021479;28;20490;-75
2021/03/13 09:21:46;;;;;;;1.53;1.23;;;7.80;98.20;;;;;;5008333;28;21081;-73
2021/03/13 09:24:14;;;;;;;1.57;1.20;;;7.90;98.20;;;;;;5017608;28;20519;-74
2021/03/13 09:26:41;;;;;;;1.57;1.20;;;7.90;98.20;;;;;;5011966;28;20479;-75
2021/03/13 09:29:08;;;;;;;1.53;1.20;;;8.00;98.20;;;;;;5017829;28;20582;-75
2021/03/13 09:31:35;;;;;;;1.60;1.20;;;8.00;98.20;;;;;;5008058;28;20557;-75
2021/03/13 09:34:20;;;;;;;1.57;1.20;;;8.10;98.20;;;;;;5024112;28;20483;-75
2021/03/13 09:36:47;;;;;;;1.60;1.20;;;8.10;98.20;;;;;;5014965;28;20479;-75
2021/03/13 09:39:21;;;;;;;1.57;1.20;;;8.20;98.20;;;;;;5014145;28;20571;-76
2021/03/13 09:42:08;;;;;;;1.60;1.20;;;8.20;98.20;;;;;;5004349;28;20570;-75
2021/03/13 09:44:37;;;;;;;1.60;1.20;;;8.30;98.20;;;;;;5014446;28;20614;-75
2021/03/13 09:47:11;;;;;;;1.60;1.40;;;8.30;98.20;;;;;;5016903;28;20600;-76
2021/03/13 09:49:38;;;;;;;1.57;1.20;;;8.30;98.20;;;;;;5018789;28;21086;-76
2021/03/13 09:52:09;;;;;;;1.50;1.10;;;8.40;98.20;;;;;;5011340;28;20479;-77
2021/03/13 09:54:36;;;;;;;1.53;1.20;;;8.40;98.20;;;;;;5022115;28;21234;-75
2021/03/13 09:57:11;;;;;;;1.60;1.20;;;8.40;98.20;;;;;;5012619;28;20478;-76
2021/03/13 09:59:39;;;;;;;1.70;1.50;;;8.40;98.20;;;;;;5019207;28;20483;-76
2021/03/13 10:02:08;;;;;;;1.53;1.20;;;8.50;98.20;;;;;;5021355;28;20570;-76
2021/03/13 10:04:35;;;;;;;1.57;1.10;;;8.70;98.20;;;;;;5016871;28;20479;-76
2021/03/13 10:07:01;;;;;;;1.60;1.17;;;9.10;98.20;;;;;;5017269;28;21020;-76
2021/03/13 10:09:28;;;;;;;1.60;1.10;;;9.50;96.70;;;;;;5019936;28;20650;-77
2021/03/13 10:12:03;;;;;;;1.57;1.10;;;9.60;94.50;;;;;;5015736;28;21059;-75
2021/03/13 10:14:37;;;;;;;1.57;1.10;;;9.70;94.00;;;;;;5021184;28;20540;-76
2021/03/13 10:17:03;;;;;;;1.57;1.20;;;9.80;93.40;;;;;;5007676;28;20541;-75
2021/03/13 10:19:37;;;;;;;1.53;1.10;;;9.70;93.00;;;;;;5024499;28;20525;-74
2021/03/13 10:22:11;;;;;;;1.57;1.10;;;9.70;93.10;;;;;;5014359;28;20563;-76
2021/03/13 10:24:46;;;;;;;1.50;1.10;;;9.60;93.20;;;;;;5022742;28;20466;-75
2021/03/13 10:27:28;;;;;;;1.60;1.10;;;9.50;93.20;;;;;;5011097;28;20482;-75
2021/03/13 10:30:01;;;;;;;1.53;1.10;;;9.50;93.10;;;;;;5013494;28;20522;-76
2021/03/13 10:32:31;;;;;;;1.60;1.20;;;9.50;93.10;;;;;;5015675;28;20535;-75
2021/03/13 10:35:12;;;;;;;1.60;1.10;;;9.50;92.60;;;;;;5019230;28;20983;-75
2021/03/13 10:37:41;;;;;;;1.53;1.10;;;9.50;92.40;;;;;;4997171;28;20502;-75
2021/03/13 10:40:11;;;;;;;1.53;1.10;;;9.40;91.60;;;;;;5017153;28;20487;-75
2021/03/13 10:42:37;;;;;;;1.53;1.10;;;9.40;92.20;;;;;;4999999;28;20526;-76
2021/03/13 10:45:15;;;;;;;1.53;1.10;;;9.40;92.10;;;;;;5013560;28;20550;-75
2021/03/13 10:47:42;;;;;;;1.53;1.10;;;9.40;92.10;;;;;;5015061;28;20494;-76
2021/03/13 10:50:10;;;;;;;1.57;1.20;;;9.30;92.30;;;;;;5027861;28;20535;-74
2021/03/13 10:52:38;;;;;;;1.60;1.20;;;9.30;92.10;;;;;;5013637;28;20549;-75
2021/03/13 10:55:06;;;;;;;1.53;1.20;;;9.20;91.80;;;;;;5017439;28;21131;-74
2021/03/13 10:57:34;;;;;;;1.53;1.10;;;9.30;91.90;;;;;;5016276;28;21001;-75
2021/03/13 11:00:01;;;;;;;1.57;1.10;;;9.50;91.00;;;;;;5023892;28;21096;-75
2021/03/13 11:02:27;;;;;;;1.57;1.20;;;9.80;91.00;;;;;;5012782;28;21023;-75
2021/03/13 11:04:53;;;;;;;1.57;1.10;;;10.00;89.00;;;;;;5015809;28;20548;-76
2021/03/13 11:07:20;;;;;;;1.53;1.10;;;10.10;88.40;;;;;;5016657;28;20511;-75
2021/03/13 11:09:47;;;;;;;1.60;1.10;;;10.20;88.60;;;;;;5022138;28;20872;-74
2021/03/13 11:12:14;;;;;;;1.57;1.10;;;10.30;88.60;;;;;;5015035;28;20518;-75
2021/03/13 11:14:42;;;;;;;1.60;1.20;;;10.20;87.30;;;;;;5024417;28;20472;-74
2021/03/13 11:17:08;;;;;;;1.60;1.20;;;10.10;87.60;;;;;;5013042;28;20961;-75
2021/03/13 11:19:36;;;;;;;1.57;1.10;;;10.10;88.20;;;;;;5022058;28;20591;-74
2021/03/13 11:22:10;;;;;;;1.60;1.10;;;10.30;88.20;;;;;;5020722;28;20483;-75
2021/03/13 11:24:39;;;;;;;1.57;1.10;;;10.40;87.00;;;;;;5018004;28;20468;-75
2021/03/13 11:27:13;;;;;;;1.57;1.10;;;10.50;87.70;;;;;;5004832;28;20483;-75
2021/03/13 11:29:41;;;;;;;1.60;1.10;;;10.50;87.60;;;;;;5020126;28;20810;-77
2021/03/13 11:32:08;;;;;;;1.53;1.10;;;10.40;86.80;;;;;;5015923;28;20561;-77
2021/03/13 11:34:35;;;;;;;1.53;1.10;;;10.30;88.00;;;;;;5022152;28;20597;-76
2021/03/13 11:37:01;;;;;;;1.57;1.10;;;10.20;87.80;;;;;;5011842;28;20534;-76
2021/03/13 11:39:28;;;;;;;1.53;1.10;;;10.30;88.40;;;;;;5023445;28;21053;-76
2021/03/13 11:41:55;;;;;;;1.53;1.00;;;10.50;88.30;;;;;;5008761;28;20480;-75
2021/03/13 11:44:21;;;;;;;1.50;1.10;;;10.70;86.80;;;;;;5015435;28;20511;-75
2021/03/13 11:46:49;;;;;;;1.53;1.10;;;10.70;86.50;;;;;;5001677;28;20566;-75
2021/03/13 11:49:15;;;;;;;1.60;1.10;;;10.70;86.60;;;;;;5016707;28;20738;-74
2021/03/13 11:51:41;;;;;;;1.57;1.00;;;10.70;87.60;;;;;;5010520;28;21556;-76
2021/03/13 11:54:08;;;;;;;2.63;2.10;;;10.80;88.10;;;;;;5015106;28;20567;-75
2021/03/13 11:56:35;;;;;;;1.60;1.10;;;11.10;87.80;;;;;;5011147;28;20483;-76
2021/03/13 11:59:01;;;;;;;1.57;1.03;;;11.50;87.80;;;;;;5021060;28;20522;-76
2021/03/13 12:01:28;;;;;;;1.50;1.00;;;11.60;86.50;;;;;;5017548;28;20494;-78
2021/03/13 12:03:55;;;;;;;1.50;1.00;;;11.80;85.40;;;;;;5019699;28;20574;-76
2021/03/13 12:06:21;;;;;;;1.50;1.00;;;12.10;85.50;;;;;;5012963;28;20523;-76
2021/03/13 12:08:48;;;;;;;1.60;1.00;;;12.30;84.30;;;;;;5022426;28;20602;-75
2021/03/13 12:11:14;;;;;;;1.57;1.07;;;12.40;84.00;;;;;;5011709;28;20502;-76
2021/03/13 12:13:41;;;;;;;1.60;1.00;;;12.50;83.90;;;;;;5022055;28;20590;-78
2021/03/13 12:16:08;;;;;;;1.60;1.10;;;12.50;83.20;;;;;;5004226;28;20539;-76
2021/03/13 12:18:34;;;;;;;1.60;1.00;;;12.40;83.10;;;;;;5015473;28;20487;-75
2021/03/13 12:21:01;;;;;;;1.53;1.00;;;12.20;83.20;;;;;;5007879;28;20471;-76
2021/03/13 12:23:28;;;;;;;1.60;1.00;;;12.00;84.00;;;;;;5014797;28;20483;-76
2021/03/13 12:25:54;;;;;;;1.50;1.00;;;11.90;84.70;;;;;;5008942;28;20550;-76
2021/03/13 12:28:21;;;;;;;1.53;1.00;;;11.60;85.50;;;;;;5023937;28;20525;-76
2021/03/13 12:30:47;;;;;;;1.53;1.00;;;11.30;86.30;;;;;;5022262;28;20543;-77
2021/03/13 12:33:14;;;;;;;1.60;1.10;;;11.00;88.40;;;;;;5006992;28;20952;-76
2021/03/13 12:35:40;;;;;;;1.50;1.00;;;10.70;90.80;;;;;;5025170;28;21042;-77
2021/03/13 12:38:08;;;;;;;1.53;1.10;;;10.30;91.20;;;;;;5007313;28;20545;-76
2021/03/13 12:40:34;;;;;;;1.60;1.10;;;10.00;91.20;;;;;;5023524;28;20503;-77
2021/03/13 12:43:00;;;;;;;1.60;1.10;;;9.60;92.60;;;;;;5014559;28;20491;-79
2021/03/13 12:45:27;;;;;;;1.57;1.10;;;9.40;94.70;;;;;;5021548;28;20535;-77
2021/03/13 12:47:53;;;;;;;1.53;1.10;;;9.20;96.50;;;;;;5006214;28;20484;-77
2021/03/13 12:50:20;;;;;;;1.57;1.10;;;9.10;97.20;;;;;;5012696;28;20521;-77
2021/03/13 12:52:46;;;;;;;1.50;1.00;;;8.90;98.00;;;;;;5013734;28;20548;-77
2021/03/13 12:55:15;;;;;;;1.50;1.10;;;8.80;98.20;;;;;;5016044;28;20958;-77
2021/03/13 12:57:41;;;;;;;1.60;1.20;;;8.80;98.20;;;;;;5013020;28;20483;-76
2021/03/13 13:00:09;;;;;;;1.50;1.10;;;8.80;98.10;;;;;;5017416;28;20514;-76
2021/03/13 13:02:36;;;;;;;1.50;1.10;;;9.00;97.80;;;;;;4989612;28;546452;-76
2021/03/13 13:05:03;;;;;;;1.57;1.10;;;9.30;96.80;;;;;;5016435;28;20277;-75
2021/03/13 13:07:29;;;;;;;1.53;1.10;;;9.50;95.60;;;;;;5010064;28;21009;-75
2021/03/13 13:09:55;;;;;;;1.57;1.20;;;9.80;94.30;;;;;;5016471;28;20462;-75